createdAt,value
2019-03-17T00:01:26.429Z,99120.73
2019-03-17T00:03:54.620Z,99116.55
2019-03-17T00:06:22.826Z,99105.05
2019-03-17T00:08:51.018Z,99115.91
2019-03-17T00:11:19.226Z,99096.40
2019-03-17T00:13:47.415Z,99095.88
2019-03-17T00:16:15.612Z,99086.16
2019-03-17T00:18:43.805Z,99080.52
2019-03-17T00:21:12.073Z,99077.58
2019-03-17T00:23:40.269Z,99080.64
2019-03-17T00:26:08.475Z,99071.95
2019-03-17T00:28:36.665Z,99069.54
2019-03-17T00:31:04.868Z,99069.54
2019-03-17T00:33:33.071Z,99074.48
2019-03-17T00:36:01.281Z,99068.00
2019-03-17T00:38:29.470Z,99068.12
2019-03-17T00:40:57.675Z,99051.31
2019-03-17T00:43:25.866Z,99045.95
2019-03-17T00:45:54.070Z,99057.02
2019-03-17T00:48:23.888Z,99047.45
2019-03-17T00:50:52.090Z,99036.66
2019-03-17T00:53:20.309Z,99033.72
2019-03-17T00:55:48.499Z,99035.09
2019-03-17T00:58:18.316Z,99040.76
2019-03-17T01:00:46.528Z,99045.70
2019-03-17T01:03:14.712Z,99044.34
2019-03-17T01:05:43.006Z,99029.09
2019-03-17T01:08:11.190Z,99033.72
2019-03-17T01:10:39.380Z,99024.87
2019-03-17T01:13:07.588Z,99016.98
2019-03-17T01:15:35.773Z,99008.84
2019-03-17T01:18:03.976Z,99009.73
2019-03-17T01:20:32.165Z,98993.86
2019-03-17T01:23:00.359Z,98999.96
2019-03-17T01:25:28.562Z,98999.96
2019-03-17T01:27:56.749Z,98991.23
2019-03-17T01:30:25.694Z,98985.56
2019-03-17T01:32:53.962Z,98978.72
2019-03-17T01:35:22.172Z,98976.80
2019-03-17T01:37:51.549Z,98989.55
2019-03-17T01:40:19.749Z,98984.40
2019-03-17T01:42:47.937Z,98971.88
2019-03-17T01:45:16.142Z,98968.62
2019-03-17T01:47:44.329Z,98982.09
2019-03-17T01:50:13.712Z,98966.41
2019-03-17T01:52:41.913Z,98962.83
2019-03-17T01:55:11.385Z,98967.03
2019-03-17T01:57:39.848Z,98966.77
2019-03-17T02:00:11.093Z,98963.71
2019-03-17T02:02:39.291Z,98958.02
2019-03-17T02:05:08.009Z,98952.43
2019-03-17T02:07:36.219Z,98957.11
2019-03-17T02:10:05.547Z,98938.70
2019-03-17T02:12:33.755Z,98943.53
2019-03-17T02:15:01.944Z,98930.91
2019-03-17T02:17:30.156Z,98937.86
2019-03-17T02:19:58.345Z,98942.08
2019-03-17T02:22:26.789Z,98936.92
2019-03-17T02:24:54.976Z,98943.13
2019-03-17T02:27:23.182Z,98931.55
2019-03-17T02:29:51.374Z,98932.59
2019-03-17T02:32:21.207Z,98921.86
2019-03-17T02:34:49.397Z,98916.40
2019-03-17T02:37:17.595Z,98921.23
2019-03-17T02:39:45.792Z,98907.41
2019-03-17T02:42:14.014Z,98906.57
2019-03-17T02:44:43.824Z,98897.84
2019-03-17T02:47:12.013Z,98907.91
2019-03-17T02:49:40.223Z,98902.67
2019-03-17T02:52:08.418Z,98906.77
2019-03-17T02:54:36.686Z,98898.57
2019-03-17T02:57:04.817Z,98896.83
2019-03-17T02:59:33.006Z,98894.41
2019-03-17T03:02:01.212Z,98892.90
2019-03-17T03:04:29.402Z,98900.58
2019-03-17T03:06:57.594Z,98890.52
2019-03-17T03:09:25.813Z,98885.43
2019-03-17T03:11:53.995Z,98886.48
2019-03-17T03:14:22.210Z,98880.58
2019-03-17T03:16:50.415Z,98877.20
2019-03-17T03:19:18.600Z,98881.30
2019-03-17T03:21:46.800Z,98874.47
2019-03-17T03:24:14.982Z,98880.98
2019-03-17T03:26:44.318Z,98874.16
2019-03-17T03:29:12.508Z,98867.32
2019-03-17T03:31:40.775Z,98865.95
2019-03-17T03:34:08.997Z,98864.79
2019-03-17T03:36:37.191Z,98848.88
2019-03-17T03:39:07.438Z,98855.92
2019-03-17T03:41:35.712Z,98838.25
2019-03-17T03:44:03.906Z,98845.20
2019-03-17T03:46:32.109Z,98851.70
2019-03-17T03:49:00.305Z,98846.56
2019-03-17T03:51:28.503Z,98833.21
2019-03-17T03:53:56.708Z,98828.59
2019-03-17T03:56:24.918Z,98831.53
2019-03-17T03:58:54.321Z,98833.94
2019-03-17T04:01:22.524Z,98840.66
2019-03-17T04:03:50.715Z,98820.32
2019-03-17T04:06:26.333Z,98828.09
2019-03-17T04:08:48.839Z,98815.79
2019-03-17T04:11:17.128Z,98816.92
2019-03-17T04:13:45.319Z,98829.91
2019-03-17T04:16:13.535Z,98823.50
2019-03-17T04:18:41.728Z,98822.22
2019-03-17T04:21:09.974Z,98821.95
2019-03-17T04:23:38.122Z,98821.95
2019-03-17T04:26:06.589Z,98826.46
2019-03-17T04:28:34.794Z,98814.89
2019-03-17T04:31:02.982Z,98809.11
2019-03-17T04:33:31.177Z,98811.52
2019-03-17T04:35:59.389Z,98805.11
2019-03-17T04:38:27.575Z,98803.79
2019-03-17T04:40:55.780Z,98800.42
2019-03-17T04:43:23.980Z,98801.78
2019-03-17T04:45:52.179Z,98789.91
2019-03-17T04:48:20.375Z,98792.86
2019-03-17T04:50:48.580Z,98792.00
2019-03-17T04:53:16.791Z,98792.00
2019-03-17T04:55:44.990Z,98803.44
2019-03-17T04:58:13.181Z,98788.95
2019-03-17T05:00:41.386Z,98787.38
2019-03-17T05:03:09.582Z,98776.66
2019-03-17T05:05:37.800Z,98771.69
2019-03-17T05:08:07.165Z,98767.74
2019-03-17T05:10:35.383Z,98770.47
2019-03-17T05:13:03.583Z,98766.05
2019-03-17T05:15:31.803Z,98761.64
2019-03-17T05:18:00.078Z,98762.60
2019-03-17T05:20:28.284Z,98763.23
2019-03-17T05:22:56.485Z,98739.80
2019-03-17T05:25:24.700Z,98739.80
2019-03-17T05:27:53.631Z,98752.11
2019-03-17T05:30:23.468Z,98755.53
2019-03-17T05:32:51.663Z,98755.53
2019-03-17T05:35:19.882Z,98751.12
2019-03-17T05:37:48.104Z,98751.12
2019-03-17T05:40:16.275Z,98770.88
2019-03-17T05:42:44.472Z,98754.58
2019-03-17T05:45:12.677Z,98759.58
2019-03-17T05:47:40.877Z,98759.58
2019-03-17T05:50:09.625Z,98844.03
2019-03-17T05:52:37.813Z,98844.03
2019-03-17T05:55:08.512Z,98862.33
2019-03-17T05:57:36.708Z,98871.61
2019-03-17T06:00:10.590Z,98875.16
2019-03-17T06:02:38.785Z,98875.34
2019-03-17T06:05:07.824Z,98883.25
2019-03-17T06:07:36.012Z,98873.93
2019-03-17T06:10:04.681Z,98877.03
2019-03-17T06:12:32.895Z,98896.94
2019-03-17T06:15:01.092Z,98903.09
2019-03-17T06:17:29.275Z,98903.09
2019-03-17T06:19:57.478Z,98900.05
2019-03-17T06:22:25.687Z,98893.26
2019-03-17T06:24:53.885Z,98900.82
2019-03-17T06:27:23.128Z,98908.94
2019-03-17T06:29:51.318Z,98915.80
2019-03-17T06:32:19.527Z,98925.72
2019-03-17T06:34:47.719Z,98930.88
2019-03-17T06:37:16.000Z,98930.88
2019-03-17T06:39:45.820Z,98937.03
2019-03-17T06:42:14.022Z,98947.55
2019-03-17T06:44:42.221Z,98944.68
2019-03-17T06:47:11.756Z,98945.86
2019-03-17T06:49:39.957Z,98939.38
2019-03-17T06:52:09.782Z,98936.61
2019-03-17T06:54:37.974Z,98936.80
2019-03-17T06:57:06.254Z,98929.52
2019-03-17T06:59:34.909Z,98929.52
2019-03-17T07:02:03.577Z,98931.91
2019-03-17T07:04:31.764Z,98929.71
2019-03-17T07:06:59.964Z,98936.00
2019-03-17T07:09:28.157Z,98930.07
2019-03-17T07:11:56.363Z,98951.36
2019-03-17T07:14:24.629Z,98962.70
2019-03-17T07:16:53.950Z,98962.70
2019-03-17T07:19:23.852Z,98965.28
2019-03-17T07:21:52.053Z,98971.23
2019-03-17T07:24:20.243Z,98984.16
2019-03-17T07:26:48.456Z,98989.93
2019-03-17T07:29:16.646Z,98991.47
2019-03-17T07:31:44.859Z,98984.81
2019-03-17T07:34:14.097Z,98989.59
2019-03-17T07:36:42.299Z,98979.87
2019-03-17T07:39:12.034Z,98998.78
2019-03-17T07:41:40.574Z,98998.78
2019-03-17T07:44:08.769Z,99005.88
2019-03-17T07:46:36.966Z,99010.95
2019-03-17T07:49:06.344Z,99009.91
2019-03-17T07:51:34.538Z,99010.19
2019-03-17T07:54:02.731Z,99008.78
2019-03-17T07:56:30.942Z,99014.23
2019-03-17T07:58:59.133Z,99018.69
2019-03-17T08:01:27.322Z,99018.69
2019-03-17T08:03:55.529Z,99028.59
2019-03-17T08:06:23.719Z,99015.50
2019-03-17T08:08:51.926Z,99024.24
2019-03-17T08:11:21.978Z,99055.61
2019-03-17T08:13:51.311Z,99046.86
2019-03-17T08:16:19.973Z,99046.86
2019-03-17T08:18:48.177Z,99051.33
2019-03-17T08:21:16.364Z,99033.48
2019-03-17T08:23:44.575Z,99033.48
2019-03-17T08:26:13.235Z,99058.75
2019-03-17T08:28:41.429Z,99051.29
2019-03-17T08:31:11.114Z,99042.50
2019-03-17T08:33:39.302Z,99055.59
2019-03-17T08:36:07.504Z,99063.48
2019-03-17T08:38:35.689Z,99069.08
2019-03-17T08:41:03.897Z,99069.08
2019-03-17T08:43:32.089Z,99087.20
2019-03-17T08:46:00.295Z,99094.34
2019-03-17T08:48:28.487Z,99113.38
2019-03-17T08:50:56.709Z,99099.01
2019-03-17T08:53:24.902Z,99115.96
2019-03-17T08:55:54.734Z,99124.92
2019-03-17T08:58:23.941Z,99124.36
2019-03-17T09:00:53.579Z,99137.88
2019-03-17T09:03:23.422Z,99136.94
2019-03-17T09:05:53.239Z,99141.86
2019-03-17T09:08:33.846Z,99149.99
2019-03-17T09:10:52.069Z,99176.98
2019-03-17T09:13:20.264Z,99180.09
2019-03-17T09:15:48.450Z,99165.37
2019-03-17T09:18:16.655Z,99165.37
2019-03-17T09:20:44.846Z,99169.36
2019-03-17T09:23:13.051Z,99170.72
2019-03-17T09:25:41.239Z,99177.22
2019-03-17T09:28:09.692Z,99173.64
2019-03-17T09:30:37.882Z,99172.27
2019-03-17T09:33:06.089Z,99183.31
2019-03-17T09:35:34.281Z,99180.59
2019-03-17T09:38:02.490Z,99199.36
2019-03-17T09:40:30.684Z,99176.98
2019-03-17T09:42:58.898Z,99184.83
2019-03-17T09:45:27.099Z,99199.22
2019-03-17T09:47:55.298Z,99196.27
2019-03-17T09:50:24.538Z,99204.19
2019-03-17T09:52:53.195Z,99222.23
2019-03-17T09:55:21.396Z,99218.72
2019-03-17T09:57:51.213Z,99221.31
2019-03-17T10:00:20.850Z,99198.94
2019-03-17T10:02:49.052Z,99214.22
2019-03-17T10:05:17.273Z,99200.67
2019-03-17T10:07:45.457Z,99200.67
2019-03-17T10:10:21.847Z,99226.12
2019-03-17T10:12:50.043Z,99225.00
2019-03-17T10:15:21.384Z,99221.67
2019-03-17T10:17:49.819Z,99221.67
2019-03-17T10:20:18.856Z,99238.19
2019-03-17T10:22:47.043Z,99220.21
2019-03-17T10:25:15.245Z,99224.52
2019-03-17T10:27:43.517Z,99230.80
2019-03-17T10:30:19.732Z,99219.08
2019-03-17T10:32:47.919Z,99219.08
2019-03-17T10:35:17.247Z,99233.06
2019-03-17T10:37:45.440Z,99232.69
2019-03-17T10:40:17.665Z,99229.75
2019-03-17T10:42:45.861Z,99229.75
2019-03-17T10:45:15.138Z,99225.30
2019-03-17T10:47:43.306Z,99225.30
2019-03-17T10:50:16.505Z,99230.63
2019-03-17T10:52:44.700Z,99244.31
2019-03-17T10:55:12.897Z,99250.67
2019-03-17T10:57:41.090Z,99250.73
2019-03-17T11:00:18.016Z,99247.98
2019-03-17T11:02:46.201Z,99247.98
2019-03-17T11:05:14.653Z,99251.05
2019-03-17T11:07:42.860Z,99259.84
2019-03-17T11:10:11.889Z,99259.84
2019-03-17T11:12:40.157Z,99274.63
2019-03-17T11:15:15.999Z,99276.75
2019-03-17T11:17:44.205Z,99280.58
2019-03-17T11:20:12.936Z,99278.81
2019-03-17T11:22:41.130Z,99268.97
2019-03-17T11:25:12.716Z,99275.38
2019-03-17T11:27:40.917Z,99279.58
2019-03-17T11:30:14.716Z,99284.84
2019-03-17T11:32:43.956Z,99287.47
2019-03-17T11:35:12.150Z,99290.73
2019-03-17T11:37:40.355Z,99295.30
2019-03-17T11:40:11.800Z,99295.30
2019-03-17T11:42:41.304Z,99304.86
2019-03-17T11:45:13.965Z,99309.99
2019-03-17T11:47:43.674Z,99309.99
2019-03-17T11:50:13.956Z,99312.05
2019-03-17T11:52:42.160Z,99323.87
2019-03-17T11:55:11.590Z,99323.84
2019-03-17T11:57:39.791Z,99321.06
2019-03-17T12:00:16.588Z,99311.83
2019-03-17T12:02:46.416Z,99307.27
2019-03-17T12:05:14.606Z,99323.42
2019-03-17T12:07:43.277Z,99330.55
2019-03-17T12:10:16.496Z,99336.27
2019-03-17T12:12:44.701Z,99345.14
2019-03-17T12:15:18.530Z,99343.02
2019-03-17T12:17:46.726Z,99353.42
2019-03-17T12:20:15.268Z,99353.42
2019-03-17T12:22:43.461Z,99356.85
2019-03-17T12:25:15.818Z,99372.98
2019-03-17T12:27:44.010Z,99352.34
2019-03-17T12:30:23.734Z,99354.44
2019-03-17T12:32:52.559Z,99349.23
2019-03-17T12:35:21.306Z,99347.84
2019-03-17T12:37:49.511Z,99353.20
2019-03-17T12:40:17.705Z,99365.22
2019-03-17T12:42:45.902Z,99361.31
2019-03-17T12:45:14.279Z,99359.39
2019-03-17T12:47:42.468Z,99359.39
2019-03-17T12:50:20.708Z,99350.22
2019-03-17T12:52:48.956Z,99358.27
2019-03-17T12:55:17.105Z,99352.28
2019-03-17T12:57:45.300Z,99367.63
2019-03-17T13:00:21.549Z,99360.80
2019-03-17T13:02:49.740Z,99391.00
2019-03-17T13:05:19.570Z,99391.00
2019-03-17T13:07:47.769Z,99398.66
2019-03-17T13:10:18.807Z,99398.66
2019-03-17T13:12:46.996Z,99390.05
2019-03-17T13:15:15.204Z,99380.23
2019-03-17T13:17:43.402Z,99392.11
2019-03-17T13:20:15.098Z,99386.59
2019-03-17T13:22:44.578Z,99386.59
2019-03-17T13:25:14.412Z,99386.53
2019-03-17T13:27:42.603Z,99388.71
2019-03-17T13:30:14.783Z,99395.23
2019-03-17T13:32:44.600Z,99395.16
2019-03-17T13:35:13.051Z,99402.30
2019-03-17T13:37:41.255Z,99408.69
2019-03-17T13:40:28.771Z,99405.27
2019-03-17T13:42:49.116Z,99406.55
2019-03-17T13:45:17.293Z,99411.11
2019-03-17T13:47:45.496Z,99421.93
2019-03-17T13:50:15.027Z,99409.91
2019-03-17T13:52:43.228Z,99413.86
2019-03-17T13:55:12.314Z,99419.67
2019-03-17T13:57:42.826Z,99415.11
2019-03-17T14:00:14.814Z,99421.92
2019-03-17T14:02:43.491Z,99419.86
2019-03-17T14:05:12.215Z,99419.86
2019-03-17T14:07:40.869Z,99419.13
2019-03-17T14:10:17.161Z,99433.39
2019-03-17T14:12:45.356Z,99429.30
2019-03-17T14:15:15.302Z,99412.75
2019-03-17T14:17:44.918Z,99436.79
2019-03-17T14:20:21.042Z,99436.93
2019-03-17T14:22:49.744Z,99443.53
2019-03-17T14:25:23.748Z,99454.86
2019-03-17T14:27:51.957Z,99458.91
2019-03-17T14:30:20.150Z,99458.91
2019-03-17T14:32:48.420Z,99457.91
2019-03-17T14:35:16.623Z,99456.22
2019-03-17T14:37:44.811Z,99461.53
2019-03-17T14:40:14.556Z,99457.72
2019-03-17T14:42:43.028Z,99474.14
2019-03-17T14:45:13.357Z,99481.63
2019-03-17T14:47:41.553Z,99490.27
2019-03-17T14:50:12.960Z,99491.22
2019-03-17T14:52:41.161Z,99495.31
2019-03-17T14:55:09.348Z,99495.31
2019-03-17T14:57:37.552Z,99511.29
2019-03-17T15:00:11.629Z,99508.23
2019-03-17T15:02:39.843Z,99507.20
2019-03-17T15:05:09.076Z,99518.11
2019-03-17T15:07:37.325Z,99511.98
2019-03-17T15:10:13.921Z,99512.66
2019-03-17T15:12:42.110Z,99517.78
2019-03-17T15:15:18.817Z,99525.40
2019-03-17T15:17:47.577Z,99523.91
2019-03-17T15:20:18.178Z,99547.40
2019-03-17T15:22:46.375Z,99528.30
2019-03-17T15:25:14.576Z,99531.38
2019-03-17T15:27:42.766Z,99531.38
2019-03-17T15:30:30.167Z,99547.51
2019-03-17T15:32:58.360Z,99552.16
2019-03-17T15:35:26.565Z,99550.86
2019-03-17T15:37:54.751Z,99565.70
2019-03-17T15:40:22.951Z,99565.70
2019-03-17T15:42:51.135Z,99565.86
2019-03-17T15:45:21.837Z,99572.54
2019-03-17T15:47:50.050Z,99556.67
2019-03-17T15:50:20.337Z,99565.22
2019-03-17T15:52:48.722Z,99565.22
2019-03-17T15:55:17.350Z,99561.80
2019-03-17T15:57:45.552Z,99561.80
2019-03-17T16:00:24.725Z,99575.28
2019-03-17T16:02:46.939Z,99580.52
2019-03-17T16:05:15.145Z,99595.52
2019-03-17T16:07:43.361Z,99594.51
2019-03-17T16:10:26.589Z,99594.87
2019-03-17T16:12:54.790Z,99601.69
2019-03-17T16:15:22.989Z,99601.69
2019-03-17T16:17:51.181Z,99605.97
2019-03-17T16:20:23.189Z,99600.67
2019-03-17T16:22:51.378Z,99600.67
2019-03-17T16:25:21.886Z,99602.38
2019-03-17T16:27:50.341Z,99614.13
2019-03-17T16:30:23.464Z,99612.59
2019-03-17T16:32:51.681Z,99612.08
2019-03-17T16:35:19.880Z,99617.04
2019-03-17T16:37:48.085Z,99613.61
2019-03-17T16:40:18.875Z,99618.20
2019-03-17T16:42:47.088Z,99625.36
2019-03-17T16:45:16.415Z,99625.36
2019-03-17T16:47:44.620Z,99627.23
2019-03-17T16:50:16.980Z,99630.97
2019-03-17T16:52:45.183Z,99630.97
2019-03-17T16:55:13.373Z,99626.37
2019-03-17T16:57:41.647Z,99631.99
2019-03-17T17:00:25.196Z,99631.99
2019-03-17T17:02:53.492Z,99634.55
2019-03-17T17:05:22.499Z,99636.42
2019-03-17T17:07:50.715Z,99646.61
2019-03-17T17:10:23.950Z,99646.61
2019-03-17T17:12:52.148Z,99652.22
2019-03-17T17:15:33.122Z,99657.77
2019-03-17T17:18:01.328Z,99658.45
2019-03-17T17:20:33.437Z,99658.45
2019-03-17T17:23:01.644Z,99661.48
2019-03-17T17:25:29.830Z,99655.52
2019-03-17T17:27:58.402Z,99655.52
2019-03-17T17:30:26.594Z,99656.53
2019-03-17T17:32:54.818Z,99656.53
2019-03-17T17:35:23.008Z,99668.27
2019-03-17T17:37:51.207Z,99666.56
2019-03-17T17:40:22.652Z,99667.25
2019-03-17T17:42:50.868Z,99679.16
2019-03-17T17:45:24.048Z,99668.09
2019-03-17T17:47:52.248Z,99679.45
2019-03-17T17:50:28.105Z,99684.22
2019-03-17T17:52:56.974Z,99680.63
2019-03-17T17:55:26.266Z,99680.63
2019-03-17T17:57:54.481Z,99678.72
2019-03-17T18:00:24.314Z,99691.30
2019-03-17T18:02:52.546Z,99686.86
2019-03-17T18:05:20.792Z,99688.56
2019-03-17T18:07:49.968Z,99689.92
2019-03-17T18:10:18.687Z,99680.14
2019-03-17T18:12:46.954Z,99680.14
2019-03-17T18:15:18.048Z,99687.28
2019-03-17T18:17:46.255Z,99678.61
2019-03-17T18:20:14.453Z,99690.18
2019-03-17T18:22:42.651Z,99687.45
2019-03-17T18:25:13.182Z,99689.82
2019-03-17T18:27:41.395Z,99698.45
2019-03-17T18:30:12.225Z,99688.07
2019-03-17T18:32:40.414Z,99685.84
2019-03-17T18:35:09.554Z,99691.78
2019-03-17T18:37:37.762Z,99686.29
2019-03-17T18:40:08.993Z,99687.30
2019-03-17T18:42:37.200Z,99703.63
2019-03-17T18:45:24.944Z,99707.70
2019-03-17T18:47:53.146Z,99693.91
2019-03-17T18:50:21.441Z,99701.47
2019-03-17T18:52:49.881Z,99711.25
2019-03-17T18:55:18.267Z,99713.60
2019-03-17T18:57:46.483Z,99709.88
2019-03-17T19:00:19.212Z,99704.09
2019-03-17T19:02:48.897Z,99715.41
2019-03-17T19:05:20.029Z,99708.57
2019-03-17T19:07:47.407Z,99708.57
2019-03-17T19:10:17.755Z,99716.41
2019-03-17T19:12:46.423Z,99715.39
2019-03-17T19:15:21.037Z,99720.98
2019-03-17T19:17:49.257Z,99715.20
2019-03-17T19:20:19.639Z,99720.34
2019-03-17T19:22:47.846Z,99713.26
2019-03-17T19:25:19.626Z,99724.13
2019-03-17T19:27:47.836Z,99711.92
2019-03-17T19:30:22.639Z,99713.97
2019-03-17T19:32:50.808Z,99720.45
2019-03-17T19:35:19.003Z,99723.00
2019-03-17T19:37:47.209Z,99727.80
2019-03-17T19:40:19.153Z,99725.88
2019-03-17T19:42:58.112Z,99717.17
2019-03-17T19:45:17.272Z,99729.91
2019-03-17T19:47:45.473Z,99724.48
2019-03-17T19:50:20.933Z,99713.26
2019-03-17T19:52:49.129Z,99712.53
2019-03-17T19:55:17.322Z,99714.23
2019-03-17T19:57:46.358Z,99704.20
2019-03-17T20:00:18.245Z,99710.80
2019-03-17T20:02:47.699Z,99701.98
2019-03-17T20:05:16.125Z,99706.08
2019-03-17T20:07:44.570Z,99716.67
2019-03-17T20:10:29.632Z,99715.31
2019-03-17T20:13:10.439Z,99707.52
2019-03-17T20:15:27.747Z,99710.42
2019-03-17T20:17:55.955Z,99717.11
2019-03-17T20:20:24.155Z,99717.13
2019-03-17T20:22:52.356Z,99716.80
2019-03-17T20:25:20.548Z,99718.16
2019-03-17T20:27:48.752Z,99722.06
2019-03-17T20:30:19.034Z,99727.66
2019-03-17T20:32:47.245Z,99709.97
2019-03-17T20:35:15.434Z,99721.53
2019-03-17T20:37:43.633Z,99724.94
2019-03-17T20:40:15.091Z,99719.34
2019-03-17T20:42:43.289Z,99716.44
2019-03-17T20:45:12.537Z,99716.09
2019-03-17T20:47:40.802Z,99711.34
2019-03-17T20:50:12.004Z,99703.36
2019-03-17T20:52:40.193Z,99706.92
2019-03-17T20:55:09.739Z,99706.58
2019-03-17T20:57:38.184Z,99708.61
2019-03-17T21:00:16.971Z,99709.28
2019-03-17T21:02:45.157Z,99705.20
2019-03-17T21:05:13.378Z,99713.20
2019-03-17T21:07:41.825Z,99708.45
2019-03-17T21:10:16.313Z,99712.36
2019-03-17T21:12:44.590Z,99704.89
2019-03-17T21:15:18.759Z,99716.44
2019-03-17T21:17:46.973Z,99708.79
2019-03-17T21:20:21.290Z,99707.94
2019-03-17T21:22:49.490Z,99705.89
2019-03-17T21:25:18.341Z,99709.91
2019-03-17T21:27:46.541Z,99706.85
2019-03-17T21:30:29.710Z,99713.30
2019-03-17T21:32:57.921Z,99705.63
2019-03-17T21:35:26.117Z,99692.66
2019-03-17T21:37:54.325Z,99702.67
2019-03-17T21:40:22.516Z,99692.80
2019-03-17T21:42:50.726Z,99699.24
2019-03-17T21:45:18.925Z,99709.08
2019-03-17T21:47:47.184Z,99702.58
2019-03-17T21:50:19.273Z,99690.98
2019-03-17T21:52:47.487Z,99689.22
2019-03-17T21:55:15.687Z,99688.53
2019-03-17T21:57:44.127Z,99700.91
2019-03-17T22:00:21.437Z,99711.59
2019-03-17T22:02:49.631Z,99716.11
2019-03-17T22:05:17.836Z,99726.09
2019-03-17T22:07:49.999Z,99720.98
2019-03-17T22:10:22.085Z,99743.47
2019-03-17T22:12:50.277Z,99791.34
2019-03-17T22:15:18.637Z,99801.44
2019-03-17T22:17:46.851Z,99799.55
2019-03-17T22:20:15.380Z,99792.34
2019-03-17T22:22:43.582Z,99765.81
2019-03-17T22:25:13.868Z,99787.80
2019-03-17T22:27:42.078Z,99774.25
2019-03-17T22:30:17.294Z,99775.95
2019-03-17T22:32:45.498Z,99772.73
2019-03-17T22:35:13.689Z,99776.73
2019-03-17T22:37:41.887Z,99765.48
2019-03-17T22:40:15.198Z,99761.20
2019-03-17T22:42:43.383Z,99773.60
2019-03-17T22:45:15.434Z,99774.30
2019-03-17T22:47:43.633Z,99756.05
2019-03-17T22:50:16.517Z,99761.88
2019-03-17T22:52:44.697Z,99762.57
2019-03-17T22:55:12.884Z,99766.34
2019-03-17T22:57:41.099Z,99769.43
2019-03-17T23:00:33.365Z,99767.42
2019-03-17T23:03:01.574Z,99776.80
2019-03-17T23:05:29.763Z,99777.23
2019-03-17T23:07:57.957Z,99765.37
2019-03-17T23:10:26.164Z,99764.52
2019-03-17T23:12:54.357Z,99767.23
2019-03-17T23:15:22.567Z,99764.55
2019-03-17T23:17:50.776Z,99757.62
2019-03-17T23:20:18.957Z,99750.33
2019-03-17T23:22:47.165Z,99758.47
2019-03-17T23:25:15.357Z,99753.35
2019-03-17T23:27:43.573Z,99752.34
2019-03-17T23:30:14.636Z,99751.69
2019-03-17T23:32:42.832Z,99747.66
2019-03-17T23:35:11.031Z,99751.95
2019-03-17T23:37:39.220Z,99745.71
2019-03-17T23:40:09.893Z,99746.09
2019-03-17T23:42:38.128Z,99748.22
2019-03-17T23:45:08.274Z,99750.27
2019-03-17T23:47:36.468Z,99750.97
2019-03-17T23:50:07.164Z,99741.81
2019-03-17T23:52:35.360Z,99752.02
2019-03-17T23:55:04.021Z,99754.38
2019-03-17T23:57:33.516Z,99754.45
